createdAt,value
2022-08-07T08:12:36.728Z,30.1
2022-08-07T08:20:53.987Z,29.5
2022-08-07T08:29:01.531Z,29.4
2022-08-07T08:36:46.237Z,29.6
2022-08-07T08:44:15.753Z,30.4
2022-08-07T08:51:50.090Z,29.7
2022-08-07T08:58:46.298Z,29.7
2022-08-07T09:06:10.532Z,28.1
2022-08-07T09:13:37.201Z,29.1
2022-08-07T09:25:54.849Z,31.6
2022-08-07T09:34:32.336Z,32
2022-08-07T09:43:17.950Z,32.8
2022-08-07T09:56:02.989Z,32.8
2022-08-07T10:04:04.442Z,32.5
2022-08-07T10:13:11.089Z,32.6
2022-08-07T10:20:50.159Z,31.9
2022-08-07T10:28:39.666Z,32.3
2022-08-07T10:36:30.117Z,32.4
2022-08-07T10:45:12.268Z,32.3
2022-08-07T10:53:22.673Z,31.8
2022-08-07T11:00:36.257Z,32.8
2022-08-07T11:08:51.021Z,32.6
2022-08-07T11:18:03.503Z,32.6
2022-08-07T11:24:25.069Z,32.6
2022-08-07T11:32:25.193Z,31.6
2022-08-07T11:39:39.963Z,32.1
2022-08-07T11:47:38.748Z,30.1
2022-08-07T11:57:17.512Z,30.4
2022-08-07T12:07:00.597Z,30.4
2022-08-07T12:14:43.926Z,31.1
2022-08-07T12:23:37.555Z,28.8
2022-08-07T12:33:09.249Z,28.4
2022-08-07T12:42:07.658Z,28.5
2022-08-07T12:50:33.639Z,29.1
2022-08-07T12:58:53.127Z,29.3
2022-08-07T13:08:52.629Z,29.4
2022-08-07T13:17:10.400Z,29.4
2022-08-07T13:26:00.723Z,30.2
2022-08-07T13:34:52.342Z,30.9
2022-08-07T13:42:46.637Z,31.8
2022-08-07T13:53:36.102Z,30.4
2022-08-07T14:01:59.367Z,30.1
2022-08-07T14:10:21.847Z,27.9
2022-08-07T14:18:13.298Z,27.9
2022-08-07T19:45:31.066Z,23.4
2022-08-07T19:54:56.043Z,23.1
2022-08-07T20:04:31.174Z,22.9
2022-08-07T20:14:00.010Z,22.5
2022-08-07T20:21:41.575Z,21.9
2022-08-07T20:29:47.336Z,21.4
2022-08-07T20:36:25.129Z,21.3
2022-08-07T20:54:53.570Z,21.1
2022-08-07T21:02:53.340Z,20.9
2022-08-07T21:10:29.600Z,20.8
2022-08-07T21:19:31.943Z,20.7
2022-08-07T21:26:51.276Z,20.8
2022-08-07T21:34:35.858Z,20.4
2022-08-07T21:43:14.502Z,20
2022-08-07T21:52:09.163Z,20
2022-08-07T21:59:23.767Z,20.1
2022-08-07T22:07:31.959Z,19.8
2022-08-07T22:14:44.010Z,19.8
2022-08-07T22:22:45.916Z,19.6
2022-08-07T22:29:33.972Z,19.6
2022-08-07T22:36:54.815Z,19.4
2022-08-07T22:44:58.553Z,19.6
2022-08-07T22:54:05.870Z,19.4
2022-08-07T23:00:28.303Z,19.4
2022-08-07T23:08:46.339Z,19.3
2022-08-07T23:18:25.755Z,19
2022-08-07T23:26:01.363Z,18.9
2022-08-07T23:37:36.858Z,18.6
2022-08-07T23:43:55.341Z,18.2
2022-08-07T23:50:33.391Z,18.1
